sensor_id;sensor_type;location;lat;lon;timestamp;P1;durP1;ratioP1;P2;durP2;ratioP2
22646;SDS011;11490;42.726;23.268;2023-06-14T00:00:36;6.60;;;3.40;;
22646;SDS011;11490;42.726;23.268;2023-06-14T00:03:04;5.10;;;2.85;;
22646;SDS011;11490;42.726;23.268;2023-06-14T00:05:29;4.60;;;2.85;;
22646;SDS011;11490;42.726;23.268;2023-06-14T00:07:57;5.05;;;3.35;;
22646;SDS011;11490;42.726;23.268;2023-06-14T00:10:25;9.52;;;2.80;;
22646;SDS011;11490;42.726;23.268;2023-06-14T00:12:51;4.70;;;2.97;;
22646;SDS011;11490;42.726;23.268;2023-06-14T00:15:16;4.45;;;2.78;;
22646;SDS011;11490;42.726;23.268;2023-06-14T00:17:42;4.80;;;3.08;;
22646;SDS011;11490;42.726;23.268;2023-06-14T00:20:07;4.45;;;2.92;;
22646;SDS011;11490;42.726;23.268;2023-06-14T00:22:32;4.25;;;3.00;;
22646;SDS011;11490;42.726;23.268;2023-06-14T00:24:58;4.38;;;2.88;;
22646;SDS011;11490;42.726;23.268;2023-06-14T00:27:23;6.35;;;3.28;;
22646;SDS011;11490;42.726;23.268;2023-06-14T00:29:49;9.27;;;4.43;;
22646;SDS011;11490;42.726;23.268;2023-06-14T00:32:15;6.95;;;3.47;;
22646;SDS011;11490;42.726;23.268;2023-06-14T00:34:40;10.55;;;4.50;;
22646;SDS011;11490;42.726;23.268;2023-06-14T00:37:05;9.38;;;4.20;;
22646;SDS011;11490;42.726;23.268;2023-06-14T00:39:30;11.23;;;3.90;;
22646;SDS011;11490;42.726;23.268;2023-06-14T00:41:56;6.03;;;3.30;;
22646;SDS011;11490;42.726;23.268;2023-06-14T00:44:22;7.05;;;3.42;;
22646;SDS011;11490;42.726;23.268;2023-06-14T00:46:48;7.35;;;3.97;;
22646;SDS011;11490;42.726;23.268;2023-06-14T00:49:14;8.02;;;3.92;;
22646;SDS011;11490;42.726;23.268;2023-06-14T00:51:40;5.90;;;3.50;;
22646;SDS011;11490;42.726;23.268;2023-06-14T00:54:05;6.85;;;3.35;;
22646;SDS011;11490;42.726;23.268;2023-06-14T00:56:31;5.60;;;3.25;;
22646;SDS011;11490;42.726;23.268;2023-06-14T00:58:56;8.57;;;3.53;;
22646;SDS011;11490;42.726;23.268;2023-06-14T01:01:21;21.55;;;7.80;;
22646;SDS011;11490;42.726;23.268;2023-06-14T01:03:47;14.48;;;5.55;;
22646;SDS011;11490;42.726;23.268;2023-06-14T01:06:21;12.48;;;4.82;;
22646;SDS011;11490;42.726;23.268;2023-06-14T01:09:14;5.35;;;3.38;;
22646;SDS011;11490;42.726;23.268;2023-06-14T01:12:14;27.40;;;5.75;;
22646;SDS011;11490;42.726;23.268;2023-06-14T01:14:31;9.00;;;4.20;;
22646;SDS011;11490;42.726;23.268;2023-06-14T01:16:57;6.03;;;3.50;;
22646;SDS011;11490;42.726;23.268;2023-06-14T01:19:24;7.95;;;3.67;;
22646;SDS011;11490;42.726;23.268;2023-06-14T01:21:50;6.65;;;3.60;;
22646;SDS011;11490;42.726;23.268;2023-06-14T01:24:16;8.18;;;3.55;;
22646;SDS011;11490;42.726;23.268;2023-06-14T01:26:41;8.57;;;4.15;;
22646;SDS011;11490;42.726;23.268;2023-06-14T01:29:10;6.75;;;3.50;;
22646;SDS011;11490;42.726;23.268;2023-06-14T01:31:36;5.47;;;3.63;;
22646;SDS011;11490;42.726;23.268;2023-06-14T01:34:06;5.90;;;3.35;;
22646;SDS011;11490;42.726;23.268;2023-06-14T01:36:31;5.78;;;3.75;;
22646;SDS011;11490;42.726;23.268;2023-06-14T01:38:56;5.07;;;3.65;;
22646;SDS011;11490;42.726;23.268;2023-06-14T01:41:23;10.30;;;4.38;;
22646;SDS011;11490;42.726;23.268;2023-06-14T01:43:49;5.88;;;3.38;;
22646;SDS011;11490;42.726;23.268;2023-06-14T01:46:16;5.07;;;3.17;;
22646;SDS011;11490;42.726;23.268;2023-06-14T01:48:42;6.70;;;3.63;;
22646;SDS011;11490;42.726;23.268;2023-06-14T01:51:07;4.65;;;3.03;;
22646;SDS011;11490;42.726;23.268;2023-06-14T01:53:32;5.72;;;3.42;;
22646;SDS011;11490;42.726;23.268;2023-06-14T01:55:58;6.63;;;3.28;;
22646;SDS011;11490;42.726;23.268;2023-06-14T01:58:23;6.07;;;3.28;;
22646;SDS011;11490;42.726;23.268;2023-06-14T02:00:49;8.65;;;3.90;;
22646;SDS011;11490;42.726;23.268;2023-06-14T02:03:14;6.05;;;3.60;;
22646;SDS011;11490;42.726;23.268;2023-06-14T02:05:40;5.32;;;3.25;;
22646;SDS011;11490;42.726;23.268;2023-06-14T02:08:06;5.32;;;3.40;;
22646;SDS011;11490;42.726;23.268;2023-06-14T02:10:31;5.40;;;3.35;;
22646;SDS011;11490;42.726;23.268;2023-06-14T02:12:56;7.20;;;2.45;;
22646;SDS011;11490;42.726;23.268;2023-06-14T02:15:22;5.40;;;2.90;;
22646;SDS011;11490;42.726;23.268;2023-06-14T02:17:48;5.05;;;3.20;;
22646;SDS011;11490;42.726;23.268;2023-06-14T02:20:14;5.60;;;3.25;;
22646;SDS011;11490;42.726;23.268;2023-06-14T02:22:39;4.68;;;3.17;;
22646;SDS011;11490;42.726;23.268;2023-06-14T02:25:05;6.05;;;3.63;;
22646;SDS011;11490;42.726;23.268;2023-06-14T02:27:31;4.63;;;3.20;;
22646;SDS011;11490;42.726;23.268;2023-06-14T02:29:56;5.88;;;3.33;;
22646;SDS011;11490;42.726;23.268;2023-06-14T02:32:22;4.70;;;2.88;;
22646;SDS011;11490;42.726;23.268;2023-06-14T02:34:47;5.03;;;3.10;;
22646;SDS011;11490;42.726;23.268;2023-06-14T02:37:15;5.90;;;3.45;;
22646;SDS011;11490;42.726;23.268;2023-06-14T02:39:40;5.43;;;3.42;;
22646;SDS011;11490;42.726;23.268;2023-06-14T02:42:05;4.97;;;3.08;;
22646;SDS011;11490;42.726;23.268;2023-06-14T02:44:31;5.35;;;3.05;;
22646;SDS011;11490;42.726;23.268;2023-06-14T02:46:57;6.97;;;3.42;;
22646;SDS011;11490;42.726;23.268;2023-06-14T02:49:23;6.13;;;3.53;;
22646;SDS011;11490;42.726;23.268;2023-06-14T02:51:49;5.22;;;3.20;;
22646;SDS011;11490;42.726;23.268;2023-06-14T02:54:14;5.80;;;3.40;;
22646;SDS011;11490;42.726;23.268;2023-06-14T02:56:39;4.97;;;3.28;;
22646;SDS011;11490;42.726;23.268;2023-06-14T02:59:05;5.85;;;3.63;;
22646;SDS011;11490;42.726;23.268;2023-06-14T03:01:31;5.22;;;2.88;;
22646;SDS011;11490;42.726;23.268;2023-06-14T03:03:59;5.10;;;2.90;;
22646;SDS011;11490;42.726;23.268;2023-06-14T03:06:24;5.53;;;3.13;;
22646;SDS011;11490;42.726;23.268;2023-06-14T03:08:50;5.78;;;3.40;;
22646;SDS011;11490;42.726;23.268;2023-06-14T03:11:15;5.50;;;3.25;;
22646;SDS011;11490;42.726;23.268;2023-06-14T03:13:42;4.47;;;3.28;;
22646;SDS011;11490;42.726;23.268;2023-06-14T03:16:08;4.68;;;2.67;;
22646;SDS011;11490;42.726;23.268;2023-06-14T03:18:34;6.30;;;3.38;;
22646;SDS011;11490;42.726;23.268;2023-06-14T03:21:01;5.75;;;3.47;;
22646;SDS011;11490;42.726;23.268;2023-06-14T03:23:26;5.75;;;3.38;;
22646;SDS011;11490;42.726;23.268;2023-06-14T03:25:51;5.68;;;3.60;;
22646;SDS011;11490;42.726;23.268;2023-06-14T03:28:17;4.75;;;3.13;;
22646;SDS011;11490;42.726;23.268;2023-06-14T03:30:42;5.55;;;3.13;;
22646;SDS011;11490;42.726;23.268;2023-06-14T03:33:07;5.57;;;3.33;;
22646;SDS011;11490;42.726;23.268;2023-06-14T03:35:33;5.55;;;3.25;;
22646;SDS011;11490;42.726;23.268;2023-06-14T03:37:58;7.47;;;3.47;;
22646;SDS011;11490;42.726;23.268;2023-06-14T03:40:24;5.45;;;2.90;;
22646;SDS011;11490;42.726;23.268;2023-06-14T03:42:53;3.72;;;2.70;;
22646;SDS011;11490;42.726;23.268;2023-06-14T03:45:18;4.97;;;2.95;;
22646;SDS011;11490;42.726;23.268;2023-06-14T03:47:43;4.82;;;3.10;;
22646;SDS011;11490;42.726;23.268;2023-06-14T03:50:09;5.00;;;3.00;;
22646;SDS011;11490;42.726;23.268;2023-06-14T03:52:34;4.75;;;3.15;;
22646;SDS011;11490;42.726;23.268;2023-06-14T03:55:00;5.22;;;3.00;;
22646;SDS011;11490;42.726;23.268;2023-06-14T03:57:25;6.38;;;3.45;;
22646;SDS011;11490;42.726;23.268;2023-06-14T03:59:51;4.97;;;3.00;;
22646;SDS011;11490;42.726;23.268;2023-06-14T04:02:16;6.03;;;3.05;;
22646;SDS011;11490;42.726;23.268;2023-06-14T04:04:43;5.57;;;2.85;;
22646;SDS011;11490;42.726;23.268;2023-06-14T04:07:11;6.30;;;3.22;;
22646;SDS011;11490;42.726;23.268;2023-06-14T04:09:37;5.10;;;3.50;;
22646;SDS011;11490;42.726;23.268;2023-06-14T04:12:03;4.43;;;3.55;;
22646;SDS011;11490;42.726;23.268;2023-06-14T04:14:29;5.95;;;3.47;;
22646;SDS011;11490;42.726;23.268;2023-06-14T04:16:55;8.30;;;3.65;;
22646;SDS011;11490;42.726;23.268;2023-06-14T04:19:21;4.40;;;2.97;;
22646;SDS011;11490;42.726;23.268;2023-06-14T04:21:46;6.25;;;3.25;;
22646;SDS011;11490;42.726;23.268;2023-06-14T04:24:11;7.22;;;4.55;;
22646;SDS011;11490;42.726;23.268;2023-06-14T04:26:42;5.45;;;3.72;;
22646;SDS011;11490;42.726;23.268;2023-06-14T04:29:09;5.40;;;3.40;;
22646;SDS011;11490;42.726;23.268;2023-06-14T04:31:35;7.00;;;3.90;;
22646;SDS011;11490;42.726;23.268;2023-06-14T04:34:02;4.97;;;3.33;;
22646;SDS011;11490;42.726;23.268;2023-06-14T04:36:31;6.93;;;3.22;;
22646;SDS011;11490;42.726;23.268;2023-06-14T04:38:59;6.72;;;3.85;;
22646;SDS011;11490;42.726;23.268;2023-06-14T04:41:25;5.60;;;3.25;;
22646;SDS011;11490;42.726;23.268;2023-06-14T04:44:01;6.07;;;3.70;;
22646;SDS011;11490;42.726;23.268;2023-06-14T04:46:27;6.78;;;3.90;;
22646;SDS011;11490;42.726;23.268;2023-06-14T04:48:53;5.35;;;3.20;;
22646;SDS011;11490;42.726;23.268;2023-06-14T04:51:19;7.40;;;4.18;;
22646;SDS011;11490;42.726;23.268;2023-06-14T04:53:47;8.57;;;5.03;;
22646;SDS011;11490;42.726;23.268;2023-06-14T04:56:14;9.32;;;4.13;;
22646;SDS011;11490;42.726;23.268;2023-06-14T04:58:39;7.15;;;4.13;;
22646;SDS011;11490;42.726;23.268;2023-06-14T05:01:05;12.93;;;5.07;;
22646;SDS011;11490;42.726;23.268;2023-06-14T05:03:30;8.88;;;4.97;;
22646;SDS011;11490;42.726;23.268;2023-06-14T05:05:56;9.77;;;4.70;;
22646;SDS011;11490;42.726;23.268;2023-06-14T05:08:21;8.65;;;3.85;;
22646;SDS011;11490;42.726;23.268;2023-06-14T05:10:49;8.35;;;4.30;;
22646;SDS011;11490;42.726;23.268;2023-06-14T05:13:15;11.07;;;4.68;;
22646;SDS011;11490;42.726;23.268;2023-06-14T05:15:40;10.73;;;4.20;;
22646;SDS011;11490;42.726;23.268;2023-06-14T05:18:05;9.00;;;4.43;;
22646;SDS011;11490;42.726;23.268;2023-06-14T05:20:33;10.05;;;4.35;;
22646;SDS011;11490;42.726;23.268;2023-06-14T05:22:59;4.43;;;2.95;;
22646;SDS011;11490;42.726;23.268;2023-06-14T05:25:25;6.53;;;3.90;;
22646;SDS011;11490;42.726;23.268;2023-06-14T05:27:53;7.55;;;4.40;;
22646;SDS011;11490;42.726;23.268;2023-06-14T05:30:18;6.25;;;4.07;;
22646;SDS011;11490;42.726;23.268;2023-06-14T05:32:43;5.88;;;3.83;;
22646;SDS011;11490;42.726;23.268;2023-06-14T05:35:08;6.15;;;4.13;;
22646;SDS011;11490;42.726;23.268;2023-06-14T05:37:34;7.05;;;4.15;;
22646;SDS011;11490;42.726;23.268;2023-06-14T05:39:59;11.90;;;7.25;;
22646;SDS011;11490;42.726;23.268;2023-06-14T05:42:25;17.80;;;8.50;;
22646;SDS011;11490;42.726;23.268;2023-06-14T05:44:50;9.73;;;5.70;;
22646;SDS011;11490;42.726;23.268;2023-06-14T05:47:15;11.18;;;6.00;;
22646;SDS011;11490;42.726;23.268;2023-06-14T05:49:42;8.35;;;5.40;;
22646;SDS011;11490;42.726;23.268;2023-06-14T05:52:10;8.98;;;5.22;;
22646;SDS011;11490;42.726;23.268;2023-06-14T05:54:37;5.57;;;4.22;;
22646;SDS011;11490;42.726;23.268;2023-06-14T05:57:03;5.47;;;4.07;;
22646;SDS011;11490;42.726;23.268;2023-06-14T05:59:29;9.25;;;5.22;;
22646;SDS011;11490;42.726;23.268;2023-06-14T06:01:55;7.80;;;3.92;;
22646;SDS011;11490;42.726;23.268;2023-06-14T06:04:20;6.47;;;3.85;;
22646;SDS011;11490;42.726;23.268;2023-06-14T06:06:45;4.88;;;3.72;;
22646;SDS011;11490;42.726;23.268;2023-06-14T06:09:11;5.70;;;3.45;;
22646;SDS011;11490;42.726;23.268;2023-06-14T06:11:37;8.07;;;3.88;;
22646;SDS011;11490;42.726;23.268;2023-06-14T06:14:02;6.55;;;3.35;;
22646;SDS011;11490;42.726;23.268;2023-06-14T06:16:27;7.15;;;4.22;;
22646;SDS011;11490;42.726;23.268;2023-06-14T06:18:53;7.60;;;3.90;;
22646;SDS011;11490;42.726;23.268;2023-06-14T06:21:18;6.82;;;3.95;;
22646;SDS011;11490;42.726;23.268;2023-06-14T06:23:43;5.95;;;4.10;;
22646;SDS011;11490;42.726;23.268;2023-06-14T06:26:09;8.23;;;4.20;;
22646;SDS011;11490;42.726;23.268;2023-06-14T06:28:34;6.35;;;4.03;;
22646;SDS011;11490;42.726;23.268;2023-06-14T06:31:00;7.53;;;4.63;;
22646;SDS011;11490;42.726;23.268;2023-06-14T06:33:25;6.85;;;4.38;;
22646;SDS011;11490;42.726;23.268;2023-06-14T06:35:50;8.48;;;4.75;;
22646;SDS011;11490;42.726;23.268;2023-06-14T06:38:15;8.63;;;5.03;;
22646;SDS011;11490;42.726;23.268;2023-06-14T06:40:43;9.50;;;4.93;;
22646;SDS011;11490;42.726;23.268;2023-06-14T06:43:08;7.47;;;4.30;;
22646;SDS011;11490;42.726;23.268;2023-06-14T06:45:33;8.68;;;4.90;;
22646;SDS011;11490;42.726;23.268;2023-06-14T06:47:59;14.05;;;5.50;;
22646;SDS011;11490;42.726;23.268;2023-06-14T06:50:25;8.30;;;4.93;;
22646;SDS011;11490;42.726;23.268;2023-06-14T06:52:50;10.13;;;5.30;;
22646;SDS011;11490;42.726;23.268;2023-06-14T06:55:16;8.60;;;5.10;;
22646;SDS011;11490;42.726;23.268;2023-06-14T06:57:41;9.13;;;5.57;;
22646;SDS011;11490;42.726;23.268;2023-06-14T07:00:07;9.60;;;5.65;;
22646;SDS011;11490;42.726;23.268;2023-06-14T07:02:38;9.70;;;5.38;;
22646;SDS011;11490;42.726;23.268;2023-06-14T07:05:03;10.02;;;6.05;;
22646;SDS011;11490;42.726;23.268;2023-06-14T07:07:29;10.27;;;5.78;;
22646;SDS011;11490;42.726;23.268;2023-06-14T07:10:00;11.07;;;5.30;;
22646;SDS011;11490;42.726;23.268;2023-06-14T07:12:36;9.40;;;5.50;;
22646;SDS011;11490;42.726;23.268;2023-06-14T07:15:04;10.18;;;5.70;;
22646;SDS011;11490;42.726;23.268;2023-06-14T07:17:30;9.27;;;6.18;;
22646;SDS011;11490;42.726;23.268;2023-06-14T07:19:55;9.93;;;5.45;;
22646;SDS011;11490;42.726;23.268;2023-06-14T07:22:20;12.40;;;6.22;;
22646;SDS011;11490;42.726;23.268;2023-06-14T07:24:46;9.38;;;6.03;;
22646;SDS011;11490;42.726;23.268;2023-06-14T07:27:11;13.95;;;6.07;;
22646;SDS011;11490;42.726;23.268;2023-06-14T07:29:38;13.95;;;6.60;;
22646;SDS011;11490;42.726;23.268;2023-06-14T07:32:03;9.60;;;6.15;;
22646;SDS011;11490;42.726;23.268;2023-06-14T07:34:29;13.88;;;6.80;;
22646;SDS011;11490;42.726;23.268;2023-06-14T07:36:54;9.82;;;6.57;;
22646;SDS011;11490;42.726;23.268;2023-06-14T07:39:19;12.63;;;6.55;;
22646;SDS011;11490;42.726;23.268;2023-06-14T07:41:45;12.48;;;7.25;;
22646;SDS011;11490;42.726;23.268;2023-06-14T07:44:10;13.00;;;7.60;;
22646;SDS011;11490;42.726;23.268;2023-06-14T07:46:37;11.02;;;6.78;;
22646;SDS011;11490;42.726;23.268;2023-06-14T07:49:03;11.63;;;7.25;;
22646;SDS011;11490;42.726;23.268;2023-06-14T07:51:28;11.32;;;6.70;;
22646;SDS011;11490;42.726;23.268;2023-06-14T07:53:53;12.50;;;7.28;;
22646;SDS011;11490;42.726;23.268;2023-06-14T07:56:19;10.55;;;6.20;;
22646;SDS011;11490;42.726;23.268;2023-06-14T07:58:44;10.45;;;6.30;;
22646;SDS011;11490;42.726;23.268;2023-06-14T08:01:09;10.52;;;6.80;;
22646;SDS011;11490;42.726;23.268;2023-06-14T08:03:36;9.48;;;6.28;;
22646;SDS011;11490;42.726;23.268;2023-06-14T08:06:01;14.05;;;7.20;;
22646;SDS011;11490;42.726;23.268;2023-06-14T08:08:30;10.52;;;6.85;;
22646;SDS011;11490;42.726;23.268;2023-06-14T08:10:55;13.77;;;7.80;;
22646;SDS011;11490;42.726;23.268;2023-06-14T08:13:21;11.30;;;6.75;;
22646;SDS011;11490;42.726;23.268;2023-06-14T08:15:46;12.10;;;6.88;;
22646;SDS011;11490;42.726;23.268;2023-06-14T08:18:12;9.65;;;6.10;;
22646;SDS011;11490;42.726;23.268;2023-06-14T08:20:37;9.32;;;5.97;;
22646;SDS011;11490;42.726;23.268;2023-06-14T08:23:02;10.88;;;6.80;;
22646;SDS011;11490;42.726;23.268;2023-06-14T08:25:29;8.88;;;5.90;;
22646;SDS011;11490;42.726;23.268;2023-06-14T08:27:54;8.43;;;5.53;;
22646;SDS011;11490;42.726;23.268;2023-06-14T08:30:19;11.75;;;7.10;;
22646;SDS011;11490;42.726;23.268;2023-06-14T08:32:44;12.23;;;6.97;;
22646;SDS011;11490;42.726;23.268;2023-06-14T08:35:10;9.98;;;6.57;;
22646;SDS011;11490;42.726;23.268;2023-06-14T08:37:40;10.18;;;6.82;;
22646;SDS011;11490;42.726;23.268;2023-06-14T08:40:15;15.98;;;7.18;;
22646;SDS011;11490;42.726;23.268;2023-06-14T08:42:42;13.68;;;6.38;;
22646;SDS011;11490;42.726;23.268;2023-06-14T08:45:08;8.98;;;6.28;;
22646;SDS011;11490;42.726;23.268;2023-06-14T08:47:33;12.52;;;6.28;;
22646;SDS011;11490;42.726;23.268;2023-06-14T08:50:01;9.63;;;5.55;;
22646;SDS011;11490;42.726;23.268;2023-06-14T08:52:29;14.23;;;7.07;;
22646;SDS011;11490;42.726;23.268;2023-06-14T08:54:58;7.60;;;5.30;;
22646;SDS011;11490;42.726;23.268;2023-06-14T08:57:25;10.02;;;5.93;;
22646;SDS011;11490;42.726;23.268;2023-06-14T08:59:55;8.05;;;4.97;;
22646;SDS011;11490;42.726;23.268;2023-06-14T09:02:22;10.00;;;5.65;;
22646;SDS011;11490;42.726;23.268;2023-06-14T09:04:47;10.63;;;5.35;;
22646;SDS011;11490;42.726;23.268;2023-06-14T09:07:14;9.50;;;6.00;;
22646;SDS011;11490;42.726;23.268;2023-06-14T09:09:40;10.18;;;5.45;;
22646;SDS011;11490;42.726;23.268;2023-06-14T09:12:07;8.20;;;4.93;;
22646;SDS011;11490;42.726;23.268;2023-06-14T09:14:35;8.07;;;4.97;;
22646;SDS011;11490;42.726;23.268;2023-06-14T09:17:03;8.02;;;5.05;;
22646;SDS011;11490;42.726;23.268;2023-06-14T09:19:28;15.60;;;5.22;;
22646;SDS011;11490;42.726;23.268;2023-06-14T09:21:54;9.18;;;5.53;;
22646;SDS011;11490;42.726;23.268;2023-06-14T09:24:20;9.38;;;5.63;;
22646;SDS011;11490;42.726;23.268;2023-06-14T09:26:50;9.50;;;5.70;;
22646;SDS011;11490;42.726;23.268;2023-06-14T09:29:16;7.07;;;5.05;;
22646;SDS011;11490;42.726;23.268;2023-06-14T09:31:42;9.15;;;5.60;;
22646;SDS011;11490;42.726;23.268;2023-06-14T09:34:07;10.85;;;5.47;;
22646;SDS011;11490;42.726;23.268;2023-06-14T09:36:34;9.02;;;5.43;;
22646;SDS011;11490;42.726;23.268;2023-06-14T09:39:02;8.75;;;4.80;;
22646;SDS011;11490;42.726;23.268;2023-06-14T09:41:35;10.50;;;6.80;;
22646;SDS011;11490;42.726;23.268;2023-06-14T09:44:01;7.15;;;5.00;;
22646;SDS011;11490;42.726;23.268;2023-06-14T09:46:27;8.55;;;5.60;;
22646;SDS011;11490;42.726;23.268;2023-06-14T09:48:54;8.73;;;4.88;;
22646;SDS011;11490;42.726;23.268;2023-06-14T09:51:19;10.13;;;5.43;;
22646;SDS011;11490;42.726;23.268;2023-06-14T09:53:48;8.95;;;5.40;;
22646;SDS011;11490;42.726;23.268;2023-06-14T09:56:13;8.65;;;6.03;;
22646;SDS011;11490;42.726;23.268;2023-06-14T09:58:39;9.65;;;6.20;;
22646;SDS011;11490;42.726;23.268;2023-06-14T10:01:05;9.25;;;5.25;;
22646;SDS011;11490;42.726;23.268;2023-06-14T10:03:33;8.07;;;5.15;;
22646;SDS011;11490;42.726;23.268;2023-06-14T10:05:59;8.00;;;5.30;;
22646;SDS011;11490;42.726;23.268;2023-06-14T10:08:27;9.48;;;5.93;;
22646;SDS011;11490;42.726;23.268;2023-06-14T10:10:57;8.20;;;5.40;;
22646;SDS011;11490;42.726;23.268;2023-06-14T10:13:22;13.13;;;6.00;;
22646;SDS011;11490;42.726;23.268;2023-06-14T10:18:59;7.75;;;5.22;;
22646;SDS011;11490;42.726;23.268;2023-06-14T10:21:12;8.13;;;5.18;;
22646;SDS011;11490;42.726;23.268;2023-06-14T10:23:40;12.80;;;5.80;;
22646;SDS011;11490;42.726;23.268;2023-06-14T10:26:06;8.13;;;5.53;;
22646;SDS011;11490;42.726;23.268;2023-06-14T10:28:31;8.32;;;4.95;;
22646;SDS011;11490;42.726;23.268;2023-06-14T10:33:29;9.63;;;5.90;;
22646;SDS011;11490;42.726;23.268;2023-06-14T10:36:07;9.93;;;5.07;;
22646;SDS011;11490;42.726;23.268;2023-06-14T10:38:32;9.73;;;4.72;;
22646;SDS011;11490;42.726;23.268;2023-06-14T10:40:59;8.35;;;4.90;;
22646;SDS011;11490;42.726;23.268;2023-06-14T10:43:25;7.85;;;4.93;;
22646;SDS011;11490;42.726;23.268;2023-06-14T10:48:34;8.35;;;5.40;;
22646;SDS011;11490;42.726;23.268;2023-06-14T10:51:05;10.00;;;5.28;;
22646;SDS011;11490;42.726;23.268;2023-06-14T10:53:34;8.13;;;5.53;;
22646;SDS011;11490;42.726;23.268;2023-06-14T10:56:07;8.20;;;5.00;;
22646;SDS011;11490;42.726;23.268;2023-06-14T10:58:33;8.13;;;5.20;;
22646;SDS011;11490;42.726;23.268;2023-06-14T11:00:58;9.02;;;5.05;;
22646;SDS011;11490;42.726;23.268;2023-06-14T11:05:56;7.97;;;5.22;;
22646;SDS011;11490;42.726;23.268;2023-06-14T11:11:06;8.13;;;5.65;;
22646;SDS011;11490;42.726;23.268;2023-06-14T11:13:31;12.25;;;5.50;;
22646;SDS011;11490;42.726;23.268;2023-06-14T11:15:57;8.25;;;5.50;;
22646;SDS011;11490;42.726;23.268;2023-06-14T11:18:25;9.02;;;5.70;;
22646;SDS011;11490;42.726;23.268;2023-06-14T11:20:52;11.07;;;5.35;;
22646;SDS011;11490;42.726;23.268;2023-06-14T11:23:17;10.45;;;5.95;;
22646;SDS011;11490;42.726;23.268;2023-06-14T11:25:43;8.98;;;5.78;;
22646;SDS011;11490;42.726;23.268;2023-06-14T11:28:08;9.00;;;5.47;;
22646;SDS011;11490;42.726;23.268;2023-06-14T11:30:33;10.30;;;6.70;;
22646;SDS011;11490;42.726;23.268;2023-06-14T11:32:58;8.55;;;5.18;;
22646;SDS011;11490;42.726;23.268;2023-06-14T11:35:24;9.55;;;6.22;;
22646;SDS011;11490;42.726;23.268;2023-06-14T11:37:55;8.05;;;5.82;;
22646;SDS011;11490;42.726;23.268;2023-06-14T11:40:23;9.23;;;6.50;;
22646;SDS011;11490;42.726;23.268;2023-06-14T11:42:48;8.30;;;5.13;;
22646;SDS011;11490;42.726;23.268;2023-06-14T11:45:13;8.70;;;5.68;;
22646;SDS011;11490;42.726;23.268;2023-06-14T11:47:39;8.63;;;5.55;;
22646;SDS011;11490;42.726;23.268;2023-06-14T11:50:05;11.25;;;6.32;;
22646;SDS011;11490;42.726;23.268;2023-06-14T11:52:31;8.30;;;5.15;;
22646;SDS011;11490;42.726;23.268;2023-06-14T11:54:56;10.68;;;5.55;;
22646;SDS011;11490;42.726;23.268;2023-06-14T11:57:22;8.10;;;4.65;;
22646;SDS011;11490;42.726;23.268;2023-06-14T11:59:48;8.70;;;4.50;;
22646;SDS011;11490;42.726;23.268;2023-06-14T12:02:14;10.98;;;5.30;;
22646;SDS011;11490;42.726;23.268;2023-06-14T12:04:42;7.43;;;4.80;;
22646;SDS011;11490;42.726;23.268;2023-06-14T12:07:11;10.93;;;4.43;;
22646;SDS011;11490;42.726;23.268;2023-06-14T12:09:40;9.90;;;5.53;;
22646;SDS011;11490;42.726;23.268;2023-06-14T12:12:06;6.45;;;4.40;;
22646;SDS011;11490;42.726;23.268;2023-06-14T12:14:31;7.70;;;4.50;;
22646;SDS011;11490;42.726;23.268;2023-06-14T12:17:06;7.70;;;5.38;;
22646;SDS011;11490;42.726;23.268;2023-06-14T12:19:31;7.72;;;4.57;;
22646;SDS011;11490;42.726;23.268;2023-06-14T12:21:58;7.50;;;5.05;;
22646;SDS011;11490;42.726;23.268;2023-06-14T12:24:27;6.47;;;4.18;;
22646;SDS011;11490;42.726;23.268;2023-06-14T12:26:52;7.05;;;4.15;;
22646;SDS011;11490;42.726;23.268;2023-06-14T12:29:19;8.90;;;4.82;;
22646;SDS011;11490;42.726;23.268;2023-06-14T12:31:44;5.53;;;3.80;;
22646;SDS011;11490;42.726;23.268;2023-06-14T12:34:10;6.35;;;4.10;;
22646;SDS011;11490;42.726;23.268;2023-06-14T12:36:35;8.18;;;4.85;;
22646;SDS011;11490;42.726;23.268;2023-06-14T12:39:05;7.35;;;4.63;;
22646;SDS011;11490;42.726;23.268;2023-06-14T12:41:31;6.00;;;4.32;;
22646;SDS011;11490;42.726;23.268;2023-06-14T12:43:56;6.38;;;4.22;;
22646;SDS011;11490;42.726;23.268;2023-06-14T12:46:24;6.35;;;4.40;;
22646;SDS011;11490;42.726;23.268;2023-06-14T12:48:50;8.55;;;4.63;;
22646;SDS011;11490;42.726;23.268;2023-06-14T12:51:16;6.43;;;3.97;;
22646;SDS011;11490;42.726;23.268;2023-06-14T12:53:41;5.72;;;4.10;;
22646;SDS011;11490;42.726;23.268;2023-06-14T12:56:06;7.20;;;4.43;;
22646;SDS011;11490;42.726;23.268;2023-06-14T12:58:31;5.47;;;3.50;;
22646;SDS011;11490;42.726;23.268;2023-06-14T13:00:57;7.53;;;4.30;;
22646;SDS011;11490;42.726;23.268;2023-06-14T13:03:22;6.95;;;4.03;;
22646;SDS011;11490;42.726;23.268;2023-06-14T13:05:48;6.20;;;3.63;;
22646;SDS011;11490;42.726;23.268;2023-06-14T13:08:13;6.03;;;4.15;;
22646;SDS011;11490;42.726;23.268;2023-06-14T13:10:39;7.57;;;3.95;;
22646;SDS011;11490;42.726;23.268;2023-06-14T13:13:04;6.25;;;4.10;;
22646;SDS011;11490;42.726;23.268;2023-06-14T13:15:29;5.65;;;3.20;;
22646;SDS011;11490;42.726;23.268;2023-06-14T13:17:55;6.18;;;3.63;;
22646;SDS011;11490;42.726;23.268;2023-06-14T13:20:20;5.88;;;4.07;;
22646;SDS011;11490;42.726;23.268;2023-06-14T13:22:45;5.97;;;3.72;;
22646;SDS011;11490;42.726;23.268;2023-06-14T13:25:11;4.97;;;3.38;;
22646;SDS011;11490;42.726;23.268;2023-06-14T13:27:36;5.90;;;3.55;;
22646;SDS011;11490;42.726;23.268;2023-06-14T13:30:02;8.00;;;3.80;;
22646;SDS011;11490;42.726;23.268;2023-06-14T13:32:27;11.52;;;3.65;;
22646;SDS011;11490;42.726;23.268;2023-06-14T13:34:53;4.22;;;3.05;;
22646;SDS011;11490;42.726;23.268;2023-06-14T13:37:18;7.20;;;4.38;;
22646;SDS011;11490;42.726;23.268;2023-06-14T13:39:44;6.75;;;3.97;;
22646;SDS011;11490;42.726;23.268;2023-06-14T13:42:09;10.40;;;4.28;;
22646;SDS011;11490;42.726;23.268;2023-06-14T13:44:35;5.50;;;3.60;;
22646;SDS011;11490;42.726;23.268;2023-06-14T13:47:00;4.93;;;3.45;;
22646;SDS011;11490;42.726;23.268;2023-06-14T13:49:26;4.85;;;2.97;;
22646;SDS011;11490;42.726;23.268;2023-06-14T13:51:51;5.45;;;3.58;;
22646;SDS011;11490;42.726;23.268;2023-06-14T13:54:18;6.25;;;3.92;;
22646;SDS011;11490;42.726;23.268;2023-06-14T13:56:44;5.85;;;3.83;;
22646;SDS011;11490;42.726;23.268;2023-06-14T13:59:09;10.43;;;3.70;;
22646;SDS011;11490;42.726;23.268;2023-06-14T14:01:36;5.93;;;3.97;;
22646;SDS011;11490;42.726;23.268;2023-06-14T14:04:01;4.78;;;3.65;;
22646;SDS011;11490;42.726;23.268;2023-06-14T14:06:27;7.18;;;3.67;;
22646;SDS011;11490;42.726;23.268;2023-06-14T14:08:52;8.48;;;4.15;;
22646;SDS011;11490;42.726;23.268;2023-06-14T14:11:18;6.47;;;3.25;;
22646;SDS011;11490;42.726;23.268;2023-06-14T14:13:43;7.00;;;4.05;;
22646;SDS011;11490;42.726;23.268;2023-06-14T14:16:09;7.07;;;4.32;;
22646;SDS011;11490;42.726;23.268;2023-06-14T14:18:35;7.38;;;4.60;;
22646;SDS011;11490;42.726;23.268;2023-06-14T14:21:02;12.27;;;4.22;;
22646;SDS011;11490;42.726;23.268;2023-06-14T14:23:27;5.75;;;3.88;;
22646;SDS011;11490;42.726;23.268;2023-06-14T14:25:52;6.10;;;3.63;;
22646;SDS011;11490;42.726;23.268;2023-06-14T14:28:18;7.18;;;4.18;;
22646;SDS011;11490;42.726;23.268;2023-06-14T14:30:45;5.70;;;3.95;;
22646;SDS011;11490;42.726;23.268;2023-06-14T14:33:12;6.68;;;4.68;;
22646;SDS011;11490;42.726;23.268;2023-06-14T14:35:41;5.40;;;3.45;;
22646;SDS011;11490;42.726;23.268;2023-06-14T14:38:06;7.03;;;3.65;;